Time;durP1;ratioP1;P1;durP2;ratioP2;P2;SDS_P1;SDS_P2;PMS_P1;PMS_P2;Temp;Humidity;BMP_temperature;BMP_pressure;BME280_temperature;BME280_humidity;BME280_pressure;Samples;Min_cycle;Max_cycle;Signal;HPM_P1;HPM_P2
2022/03/31 00:00:37;;;;;;;;;;;;;;;12.12;60.69;98818.53;5006850;28;20419;-80
2022/03/31 00:03:04;;;;;;;;;;;;;;;12.16;60.58;98813.09;5039151;28;19925;-82
2022/03/31 00:05:29;;;;;;;;;;;;;;;12.48;59.41;98797.84;5006309;28;19925;-81
2022/03/31 00:07:59;;;;;;;;;;;;;;;12.40;59.10;98794.59;5006808;28;20691;-83
2022/03/31 00:10:26;;;;;;;;;;;;;;;12.40;59.13;98799.03;5007308;28;19960;-81
2022/03/31 00:12:51;;;;;;;;;;;;;;;12.46;58.98;98801.47;5005899;28;19921;-80
2022/03/31 00:15:17;;;;;;;;;;;;;;;12.31;59.18;98803.75;5009371;28;19933;-80
2022/03/31 00:17:42;;;;;;;;;;;;;;;12.16;59.84;98791.94;5010130;28;20400;-81
2022/03/31 00:20:08;;;;;;;;;;;;;;;12.03;60.48;98782.72;5011412;28;19947;-80
2022/03/31 00:22:34;;;;;;;;;;;;;;;12.33;59.75;98795.78;5009510;28;20470;-81
2022/03/31 00:24:59;;;;;;;;;;;;;;;12.32;59.79;98783.47;5010789;28;20396;-81
2022/03/31 00:27:24;;;;;;;;;;;;;;;12.55;58.47;98793.19;5010570;28;19929;-80
2022/03/31 00:29:50;;;;;;;;;;;;;;;12.49;58.71;98786.34;5010610;28;19921;-80
2022/03/31 00:32:15;;;;;;;;;;;;;;;12.49;58.93;98790.78;5011058;28;19928;-81
2022/03/31 00:34:40;;;;;;;;;;;;;;;12.45;59.19;98790.03;5010564;28;20354;-81
2022/03/31 00:37:05;;;;;;;;;;;;;;;12.38;59.46;98782.38;5010489;28;19956;-80
2022/03/31 00:39:34;;;;;;;;;;;;;;;12.36;59.09;98778.00;5010315;28;19952;-80
2022/03/31 00:42:00;;;;;;;;;;;;;;;12.17;59.65;98785.75;5010836;28;20012;-81
2022/03/31 00:44:26;;;;;;;;;;;;;;;12.28;59.61;98780.06;5010321;28;19925;-81
2022/03/31 00:46:53;;;;;;;;;;;;;;;12.25;59.32;98787.22;5010247;28;19984;-81
2022/03/31 00:49:19;;;;;;;;;;;;;;;12.10;59.70;98796.59;5010534;28;19918;-79
2022/03/31 00:51:45;;;;;;;;;;;;;;;11.93;60.42;98794.56;5010096;28;20465;-80
2022/03/31 00:54:12;;;;;;;;;;;;;;;11.85;60.85;98799.19;5010106;28;19948;-81
2022/03/31 00:56:37;;;;;;;;;;;;;;;11.99;59.97;98791.69;5010408;28;19924;-80
2022/03/31 00:59:04;;;;;;;;;;;;;;;11.79;60.17;98792.34;5010134;28;19926;-80
2022/03/31 01:01:31;;;;;;;;;;;;;;;11.98;60.37;98785.53;5010435;28;20040;-80
2022/03/31 01:03:56;;;;;;;;;;;;;;;11.94;60.48;98805.06;5009898;28;20020;-81
2022/03/31 01:06:22;;;;;;;;;;;;;;;12.03;60.13;98793.28;5010088;28;20020;-81
2022/03/31 01:08:48;;;;;;;;;;;;;;;12.11;59.78;98799.19;5008830;28;19925;-81
2022/03/31 01:11:13;;;;;;;;;;;;;;;12.23;59.08;98799.66;5009338;28;19933;-80
2022/03/31 01:13:39;;;;;;;;;;;;;;;12.24;59.21;98796.97;5008576;28;19921;-81
2022/03/31 01:16:05;;;;;;;;;;;;;;;12.29;59.26;98791.50;5007612;28;19925;-80
2022/03/31 01:18:30;;;;;;;;;;;;;;;12.18;58.93;98797.19;5037109;28;20020;-80
2022/03/31 01:20:55;;;;;;;;;;;;;;;12.19;58.97;98788.34;5008706;28;19925;-81
2022/03/31 01:23:21;;;;;;;;;;;;;;;11.96;58.99;98790.00;5009149;28;20103;-80
2022/03/31 01:25:46;;;;;;;;;;;;;;;11.74;59.24;98797.78;5007588;28;19931;-80
2022/03/31 01:28:12;;;;;;;;;;;;;;;11.63;59.93;98807.84;5008702;28;19922;-81
2022/03/31 01:30:37;;;;;;;;;;;;;;;11.62;59.81;98804.34;5008974;28;19926;-81
2022/03/31 01:33:02;;;;;;;;;;;;;;;11.93;58.90;98799.84;5008915;28;19921;-80
2022/03/31 01:35:28;;;;;;;;;;;;;;;11.83;58.93;98801.88;5020804;28;19933;-80
2022/03/31 01:37:53;;;;;;;;;;;;;;;11.98;58.82;98797.88;5008210;28;19957;-81
2022/03/31 01:40:18;;;;;;;;;;;;;;;12.06;58.55;98802.91;5008706;28;19965;-81
2022/03/31 01:42:44;;;;;;;;;;;;;;;12.15;58.49;98802.56;5007470;28;19932;-81
2022/03/31 01:45:11;;;;;;;;;;;;;;;12.04;58.24;98807.38;5009413;28;19932;-81
2022/03/31 01:47:37;;;;;;;;;;;;;;;12.04;58.34;98799.47;5007947;28;19921;-81
2022/03/31 01:50:02;;;;;;;;;;;;;;;12.07;58.29;98786.13;5009212;28;19933;-81
2022/03/31 01:52:28;;;;;;;;;;;;;;;11.96;58.59;98779.44;5009305;28;19921;-82
2022/03/31 01:54:54;;;;;;;;;;;;;;;12.04;58.82;98775.66;5008927;28;20462;-81
2022/03/31 01:57:21;;;;;;;;;;;;;;;12.03;58.77;98769.50;5009165;28;20015;-81
2022/03/31 01:59:49;;;;;;;;;;;;;;;11.89;59.15;98758.53;5009533;28;19940;-80
2022/03/31 02:02:14;;;;;;;;;;;;;;;11.88;58.94;98755.03;5009079;28;20389;-81
2022/03/31 02:04:43;;;;;;;;;;;;;;;11.76;59.17;98755.47;5010233;28;19928;-80
2022/03/31 02:07:09;;;;;;;;;;;;;;;11.78;59.31;98759.75;5009018;28;19926;-81
2022/03/31 02:09:34;;;;;;;;;;;;;;;11.86;59.37;98770.06;5006898;28;19932;-81
2022/03/31 02:11:59;;;;;;;;;;;;;;;11.90;59.10;98776.13;5008633;28;19921;-82
2022/03/31 02:14:25;;;;;;;;;;;;;;;11.81;59.08;98757.00;5008913;28;19922;-80
2022/03/31 02:16:51;;;;;;;;;;;;;;;11.83;59.00;98749.03;5008681;28;19925;-81
2022/03/31 02:19:16;;;;;;;;;;;;;;;11.76;59.23;98736.97;5008737;28;19965;-81
2022/03/31 02:21:42;;;;;;;;;;;;;;;11.81;59.29;98735.88;5008248;28;20349;-81
2022/03/31 02:24:11;;;;;;;;;;;;;;;11.81;59.36;98756.16;5008819;28;19975;-82
2022/03/31 02:26:36;;;;;;;;;;;;;;;11.67;59.77;98754.00;5008468;28;19972;-82
2022/03/31 02:29:03;;;;;;;;;;;;;;;11.69;59.91;98768.00;5008500;28;19926;-80
2022/03/31 02:31:28;;;;;;;;;;;;;;;11.71;59.62;98767.94;5008623;28;19928;-80
2022/03/31 02:33:53;;;;;;;;;;;;;;;11.47;60.41;98760.81;5008762;28;19937;-80
2022/03/31 02:36:19;;;;;;;;;;;;;;;11.24;61.31;98771.28;5007558;28;19964;-81
2022/03/31 02:38:44;;;;;;;;;;;;;;;11.33;61.26;98768.34;5007670;28;19925;-80
2022/03/31 02:41:09;;;;;;;;;;;;;;;11.43;61.33;98767.13;5008621;28;19939;-79
2022/03/31 02:43:36;;;;;;;;;;;;;;;11.40;61.25;98779.53;5007521;28;19953;-82
2022/03/31 02:46:01;;;;;;;;;;;;;;;11.24;60.78;98771.28;5007186;28;20407;-80
2022/03/31 02:48:26;;;;;;;;;;;;;;;11.23;61.04;98765.13;5008279;28;20711;-81
2022/03/31 02:50:52;;;;;;;;;;;;;;;11.46;60.71;98756.47;5006996;28;19952;-81
2022/03/31 02:56:02;;;;;;;;;;;;;;;11.32;61.41;98786.88;5007951;28;19948;-82
2022/03/31 02:58:27;;;;;;;;;;;;;;;11.22;61.69;98781.88;5008301;28;19926;-81
2022/03/31 03:00:53;;;;;;;;;;;;;;;11.27;62.21;98787.88;5007401;28;20463;-81
2022/03/31 03:03:19;;;;;;;;;;;;;;;11.22;62.06;98792.44;5007187;28;19986;-83
2022/03/31 03:05:45;;;;;;;;;;;;;;;11.16;61.71;98778.59;5007932;28;19964;-84
2022/03/31 03:08:11;;;;;;;;;;;;;;;11.21;62.22;98752.91;5007490;28;19922;-81
2022/03/31 03:10:37;;;;;;;;;;;;;;;11.21;62.31;98747.63;5007446;28;19933;-82
2022/03/31 03:13:02;;;;;;;;;;;;;;;11.31;61.93;98761.38;5007924;28;19952;-83
2022/03/31 03:15:28;;;;;;;;;;;;;;;11.38;61.89;98770.81;5007533;28;19921;-82
2022/03/31 03:17:53;;;;;;;;;;;;;;;11.46;61.89;98768.78;5007935;28;19925;-83
2022/03/31 03:20:20;;;;;;;;;;;;;;;11.49;61.69;98754.63;5007568;28;20399;-83
2022/03/31 03:22:47;;;;;;;;;;;;;;;11.46;60.88;98759.09;5007799;28;19918;-82
2022/03/31 03:25:13;;;;;;;;;;;;;;;11.25;61.77;98749.25;5005733;28;19925;-81
2022/03/31 03:27:39;;;;;;;;;;;;;;;11.04;61.62;98761.34;5007339;28;20617;-83
2022/03/31 03:30:04;;;;;;;;;;;;;;;10.68;62.77;98748.41;5007355;28;19925;-82
2022/03/31 03:32:30;;;;;;;;;;;;;;;10.70;62.81;98751.84;5007280;28;19968;-81
2022/03/31 03:34:55;;;;;;;;;;;;;;;10.47;63.56;98760.44;5036970;28;20346;-81
2022/03/31 03:37:21;;;;;;;;;;;;;;;10.82;62.61;98751.47;5007473;28;20012;-80
2022/03/31 03:39:46;;;;;;;;;;;;;;;10.73;63.02;98747.34;5007274;28;19922;-79
2022/03/31 03:42:11;;;;;;;;;;;;;;;10.78;63.26;98746.34;5007266;28;19921;-81
2022/03/31 03:44:37;;;;;;;;;;;;;;;10.38;64.74;98737.88;5006864;28;19921;-81
2022/03/31 03:47:02;;;;;;;;;;;;;;;10.56;64.04;98737.28;5018997;28;19922;-81
2022/03/31 03:49:27;;;;;;;;;;;;;;;10.52;63.67;98746.22;4995690;28;19926;-80
2022/03/31 03:51:53;;;;;;;;;;;;;;;10.24;65.01;98747.91;5039102;28;19983;-80
2022/03/31 03:54:18;;;;;;;;;;;;;;;10.05;66.60;98751.06;5041907;28;20297;-80
2022/03/31 03:56:43;;;;;;;;;;;;;;;10.29;65.76;98760.06;5011549;28;20402;-80
2022/03/31 03:59:09;;;;;;;;;;;;;;;10.32;66.23;98770.50;5007068;28;20392;-80
2022/03/31 04:01:34;;;;;;;;;;;;;;;10.36;66.56;98771.31;5007337;28;19921;-79
2022/03/31 04:03:59;;;;;;;;;;;;;;;10.42;66.73;98775.56;5007108;28;19976;-82
2022/03/31 04:06:25;;;;;;;;;;;;;;;10.24;67.39;98776.91;5006797;28;19933;-81
2022/03/31 04:08:51;;;;;;;;;;;;;;;10.35;67.91;98774.88;5007033;28;19928;-81
2022/03/31 04:11:16;;;;;;;;;;;;;;;10.56;67.14;98763.66;5023847;28;19925;-81
2022/03/31 04:13:42;;;;;;;;;;;;;;;10.61;66.54;98749.50;5023458;28;19925;-79
2022/03/31 04:16:08;;;;;;;;;;;;;;;10.71;66.61;98751.81;5016879;28;20449;-79
2022/03/31 04:18:33;;;;;;;;;;;;;;;10.69;65.72;98747.47;5025901;28;20022;-80
2022/03/31 04:21:02;;;;;;;;;;;;;;;10.62;65.56;98751.22;5006611;28;20358;-79
2022/03/31 04:23:27;;;;;;;;;;;;;;;10.78;65.44;98754.25;5022224;28;19929;-80
2022/03/31 04:25:52;;;;;;;;;;;;;;;10.88;64.67;98750.44;5007366;28;19925;-80
2022/03/31 04:28:18;;;;;;;;;;;;;;;10.95;65.04;98732.63;5007022;28;19922;-79
2022/03/31 04:30:43;;;;;;;;;;;;;;;10.94;65.39;98734.41;5007229;28;19933;-79
2022/03/31 04:33:09;;;;;;;;;;;;;;;11.05;64.52;98752.53;5007400;28;19913;-79
2022/03/31 04:35:36;;;;;;;;;;;;;;;11.14;64.50;98759.28;5004749;28;19948;-81
2022/03/31 04:38:02;;;;;;;;;;;;;;;11.23;63.86;98743.13;5006748;28;19917;-79
2022/03/31 04:40:27;;;;;;;;;;;;;;;11.12;64.31;98725.00;5006604;28;20441;-80
2022/03/31 04:42:52;;;;;;;;;;;;;;;11.22;64.29;98728.22;5006402;28;20008;-79
2022/03/31 04:45:18;;;;;;;;;;;;;;;11.23;64.70;98737.84;5006713;28;19937;-79
2022/03/31 04:47:43;;;;;;;;;;;;;;;11.49;63.46;98754.63;5006964;28;19971;-79
2022/03/31 04:50:08;;;;;;;;;;;;;;;11.53;63.12;98757.09;5006552;28;19965;-78
2022/03/31 04:52:34;;;;;;;;;;;;;;;11.54;62.81;98757.97;5004795;28;19936;-79
2022/03/31 04:54:59;;;;;;;;;;;;;;;11.50;63.31;98753.72;4989595;28;19926;-79
2022/03/31 04:57:24;;;;;;;;;;;;;;;11.55;63.74;98757.06;5006149;28;19928;-79
2022/03/31 04:59:50;;;;;;;;;;;;;;;11.49;63.99;98762.53;5007049;28;19929;-79
2022/03/31 05:02:15;;;;;;;;;;;;;;;11.50;64.38;98778.34;5010330;28;19921;-81
2022/03/31 05:04:41;;;;;;;;;;;;;;;11.57;64.10;98777.22;4996484;28;19948;-80
2022/03/31 05:07:11;;;;;;;;;;;;;;;11.58;63.96;98780.72;5011627;28;19929;-80
2022/03/31 05:09:37;;;;;;;;;;;;;;;11.67;63.76;98784.84;5009233;28;19928;-79
2022/03/31 05:12:03;;;;;;;;;;;;;;;11.77;63.82;98771.28;5009974;28;20023;-79
2022/03/31 05:14:28;;;;;;;;;;;;;;;11.91;63.76;98781.34;5009653;28;20411;-80
2022/03/31 05:16:54;;;;;;;;;;;;;;;12.03;62.88;98780.06;5010302;28;19924;-78
2022/03/31 05:19:19;;;;;;;;;;;;;;;12.12;62.80;98771.81;5009379;28;19932;-79
2022/03/31 05:21:44;;;;;;;;;;;;;;;12.16;63.36;98773.44;5008860;28;19921;-79
2022/03/31 05:24:10;;;;;;;;;;;;;;;12.21;63.45;98777.72;5009800;28;20430;-81
2022/03/31 05:26:35;;;;;;;;;;;;;;;12.22;63.11;98772.38;5009788;28;19929;-80
2022/03/31 05:29:00;;;;;;;;;;;;;;;12.33;63.09;98772.81;5010001;28;19955;-81
2022/03/31 05:31:26;;;;;;;;;;;;;;;12.33;63.30;98771.97;5009691;28;19921;-80
2022/03/31 05:33:51;;;;;;;;;;;;;;;12.21;62.45;98785.63;5009352;28;19984;-80
2022/03/31 05:36:16;;;;;;;;;;;;;;;12.26;63.60;98794.25;5009945;28;20520;-79
2022/03/31 05:38:42;;;;;;;;;;;;;;;12.43;62.90;98783.91;5008785;28;20036;-79
2022/03/31 05:41:07;;;;;;;;;;;;;;;12.29;62.47;98773.00;5010036;28;20424;-80
2022/03/31 05:43:32;;;;;;;;;;;;;;;12.27;62.56;98783.63;5009271;28;19940;-78
2022/03/31 05:45:58;;;;;;;;;;;;;;;12.34;62.73;98785.13;5009492;28;19922;-80
2022/03/31 05:48:23;;;;;;;;;;;;;;;12.06;63.08;98787.03;5009549;28;20071;-79
2022/03/31 05:50:48;;;;;;;;;;;;;;;12.14;62.65;98787.63;5009450;28;19995;-78
2022/03/31 05:53:15;;;;;;;;;;;;;;;12.34;62.35;98787.78;5009541;28;19973;-78
2022/03/31 05:55:45;;;;;;;;;;;;;;;12.04;63.30;98797.66;5009738;28;19918;-79
2022/03/31 05:58:10;;;;;;;;;;;;;;;11.90;64.62;98800.75;5042104;28;20346;-79
2022/03/31 06:00:36;;;;;;;;;;;;;;;11.97;64.90;98807.59;5009025;28;19972;-80
2022/03/31 06:03:01;;;;;;;;;;;;;;;12.29;64.26;98804.72;5010091;28;20677;-80
2022/03/31 06:05:26;;;;;;;;;;;;;;;12.53;62.91;98805.63;5008964;28;19921;-79
2022/03/31 06:07:52;;;;;;;;;;;;;;;12.53;62.44;98808.25;5009176;28;19968;-80
2022/03/31 06:10:18;;;;;;;;;;;;;;;12.27;63.57;98803.94;5009257;28;19928;-79
2022/03/31 06:12:44;;;;;;;;;;;;;;;12.36;63.53;98804.44;5008960;28;20443;-79
2022/03/31 06:15:09;;;;;;;;;;;;;;;12.46;64.45;98801.47;5009011;28;19921;-79
2022/03/31 06:17:39;;;;;;;;;;;;;;;12.65;63.54;98806.94;5009248;28;19952;-79
2022/03/31 06:20:05;;;;;;;;;;;;;;;12.64;63.92;98807.88;5008821;28;19925;-79
2022/03/31 06:22:30;;;;;;;;;;;;;;;12.59;63.52;98802.75;5009240;28;20388;-79
2022/03/31 06:24:55;;;;;;;;;;;;;;;12.41;63.38;98795.50;5008425;28;19921;-79
2022/03/31 06:27:21;;;;;;;;;;;;;;;12.52;63.57;98822.41;5008770;28;19922;-81
2022/03/31 06:29:47;;;;;;;;;;;;;;;12.32;64.49;98847.78;5041031;28;19928;-80
2022/03/31 06:32:13;;;;;;;;;;;;;;;12.17;65.46;98829.81;5008869;28;19973;-81
2022/03/31 06:34:39;;;;;;;;;;;;;;;12.32;65.00;98849.56;5008714;28;19929;-80
2022/03/31 06:37:04;;;;;;;;;;;;;;;11.97;65.96;98846.38;5023778;28;19921;-81
2022/03/31 06:39:29;;;;;;;;;;;;;;;11.86;65.88;98815.00;5008242;28;19932;-81
2022/03/31 06:41:55;;;;;;;;;;;;;;;11.99;65.47;98800.47;5008498;28;20396;-79
2022/03/31 06:44:21;;;;;;;;;;;;;;;12.27;64.74;98793.34;5039968;28;20299;-80
2022/03/31 06:46:46;;;;;;;;;;;;;;;12.66;63.89;98783.06;5007816;28;19921;-81
2022/03/31 06:49:13;;;;;;;;;;;;;;;12.53;63.59;98782.66;5008032;28;20016;-80
2022/03/31 06:51:39;;;;;;;;;;;;;;;12.64;63.10;98770.81;5039856;28;20383;-79
2022/03/31 06:54:05;;;;;;;;;;;;;;;12.78;63.22;98765.00;5008042;28;19961;-80
2022/03/31 06:56:31;;;;;;;;;;;;;;;13.02;62.98;98771.09;5008034;28;19948;-80
2022/03/31 06:58:57;;;;;;;;;;;;;;;13.28;62.04;98793.03;5007828;28;20023;-80
2022/03/31 07:01:22;;;;;;;;;;;;;;;13.54;60.51;98789.34;5013946;28;20049;-81
2022/03/31 07:03:48;;;;;;;;;;;;;;;13.76;60.32;98786.66;5007443;28;20432;-80
2022/03/31 07:06:14;;;;;;;;;;;;;;;13.73;60.21;98795.63;5006803;28;19922;-80
2022/03/31 07:08:39;;;;;;;;;;;;;;;13.88;60.64;98814.44;5039408;28;19969;-80
2022/03/31 07:11:05;;;;;;;;;;;;;;;14.13;61.25;98819.53;5008129;28;20019;-80
2022/03/31 07:13:31;;;;;;;;;;;;;;;14.39;59.63;98815.75;5039106;28;20012;-80
2022/03/31 07:15:57;;;;;;;;;;;;;;;14.68;57.37;98822.41;5008044;28;19917;-80
2022/03/31 07:18:22;;;;;;;;;;;;;;;14.77;58.37;98830.91;5007826;28;20447;-79
2022/03/31 07:20:47;;;;;;;;;;;;;;;14.83;59.76;98839.44;5007546;28;19956;-79
2022/03/31 07:23:13;;;;;;;;;;;;;;;14.93;58.29;98836.38;5006907;28;19917;-81
2022/03/31 07:25:38;;;;;;;;;;;;;;;15.06;58.46;98836.66;5007731;28;20682;-80
2022/03/31 07:28:04;;;;;;;;;;;;;;;14.84;58.34;98832.34;5006973;28;19928;-80
2022/03/31 07:30:29;;;;;;;;;;;;;;;15.20;58.53;98843.03;5039288;28;20015;-80
2022/03/31 07:32:58;;;;;;;;;;;;;;;15.31;55.97;98809.78;5006578;28;19965;-80
2022/03/31 07:35:26;;;;;;;;;;;;;;;15.20;57.61;98834.22;5007279;28;20426;-81
2022/03/31 07:37:52;;;;;;;;;;;;;;;15.42;57.73;98838.50;5007670;28;19928;-80
2022/03/31 07:40:17;;;;;;;;;;;;;;;15.53;55.78;98837.03;5006827;28;20343;-80
2022/03/31 07:42:43;;;;;;;;;;;;;;;15.39;56.12;98831.53;5007399;28;20016;-80
2022/03/31 07:45:09;;;;;;;;;;;;;;;15.58;56.13;98827.03;5006741;28;20364;-80
2022/03/31 07:47:34;;;;;;;;;;;;;;;15.98;55.03;98829.50;5038683;28;19926;-80
2022/03/31 07:49:59;;;;;;;;;;;;;;;16.08;54.85;98809.50;5007186;28;19922;-80
2022/03/31 07:52:25;;;;;;;;;;;;;;;16.24;55.45;98814.88;5006681;28;19928;-79
2022/03/31 07:54:50;;;;;;;;;;;;;;;16.58;53.50;98828.22;5007643;28;19956;-79
2022/03/31 07:57:16;;;;;;;;;;;;;;;16.42;53.72;98813.06;5007662;28;20338;-80
2022/03/31 07:59:41;;;;;;;;;;;;;;;16.75;52.60;98800.66;5006712;28;20304;-78
2022/03/31 08:02:06;;;;;;;;;;;;;;;17.00;52.78;98797.53;5007452;28;19918;-80
2022/03/31 08:04:32;;;;;;;;;;;;;;;16.97;52.78;98798.56;5006771;28;19921;-80
2022/03/31 08:06:57;;;;;;;;;;;;;;;17.08;53.00;98779.31;5007213;28;19928;-79
2022/03/31 08:09:23;;;;;;;;;;;;;;;17.16;52.09;98766.44;5007153;28;19921;-79
2022/03/31 08:11:52;;;;;;;;;;;;;;;16.87;52.61;98746.75;5007344;28;19922;-78
2022/03/31 08:14:19;;;;;;;;;;;;;;;17.09;53.16;98770.38;5022304;28;19918;-79
2022/03/31 08:16:46;;;;;;;;;;;;;;;17.31;52.01;98780.66;5007337;28;19917;-80
2022/03/31 08:19:12;;;;;;;;;;;;;;;17.41;51.78;98785.47;5007382;28;19918;-80
2022/03/31 08:21:37;;;;;;;;;;;;;;;17.57;52.47;98786.31;5039071;28;20019;-80
2022/03/31 08:24:02;;;;;;;;;;;;;;;17.86;50.50;98778.41;5007603;28;19956;-79
2022/03/31 08:26:28;;;;;;;;;;;;;;;17.63;50.21;98775.28;5006673;28;19980;-80
2022/03/31 08:28:53;;;;;;;;;;;;;;;17.29;51.64;98777.25;5007292;28;19972;-79
2022/03/31 08:31:19;;;;;;;;;;;;;;;18.01;50.71;98766.88;5007097;28;19922;-81
2022/03/31 08:33:44;;;;;;;;;;;;;;;18.52;49.55;98770.88;5006882;28;19921;-81
2022/03/31 08:36:09;;;;;;;;;;;;;;;18.84;48.69;98770.69;5009849;28;19918;-82
2022/03/31 08:38:35;;;;;;;;;;;;;;;18.74;47.66;98775.75;5010550;28;19927;-82
2022/03/31 08:41:02;;;;;;;;;;;;;;;18.60;49.73;98773.94;5010878;28;19928;-82
2022/03/31 08:43:27;;;;;;;;;;;;;;;18.58;48.19;98762.50;5011275;28;20732;-82
2022/03/31 08:45:55;;;;;;;;;;;;;;;18.67;48.12;98771.75;5010350;28;19975;-82
2022/03/31 08:48:22;;;;;;;;;;;;;;;18.94;48.68;98780.72;5010445;28;19960;-82
2022/03/31 08:50:47;;;;;;;;;;;;;;;18.52;47.46;98769.09;5010431;28;19928;-82
2022/03/31 08:53:12;;;;;;;;;;;;;;;18.04;49.35;98750.66;5010016;28;20307;-82
2022/03/31 08:55:38;;;;;;;;;;;;;;;18.28;49.36;98768.78;5042593;28;19921;-82
2022/03/31 08:58:03;;;;;;;;;;;;;;;18.75;48.05;98748.94;5010328;28;19918;-82
2022/03/31 09:00:28;;;;;;;;;;;;;;;18.28;50.84;98702.06;5009583;28;20715;-82
2022/03/31 09:02:58;;;;;;;;;;;;;;;18.28;50.73;98741.25;5010522;28;20388;-81
2022/03/31 09:05:23;;;;;;;;;;;;;;;18.64;49.88;98727.38;5009447;28;19924;-81
2022/03/31 09:07:52;;;;;;;;;;;;;;;18.61;49.45;98727.56;5009804;28;19929;-81
2022/03/31 09:10:26;;;;;;;;;;;;;;;18.51;50.16;98735.31;5010191;28;19917;-81
2022/03/31 09:12:52;;;;;;;;;;;;;;;18.54;50.87;98731.63;5008886;28;20355;-79
2022/03/31 09:15:17;;;;;;;;;;;;;;;18.42;51.58;98710.06;5010568;28;19921;-79
2022/03/31 09:17:42;;;;;;;;;;;;;;;18.63;51.23;98720.34;5010037;28;20522;-78
2022/03/31 09:20:08;;;;;;;;;;;;;;;18.88;50.51;98706.28;5009272;28;19926;-80
2022/03/31 09:22:44;;;;;;;;;;;;;;;18.80;51.09;98700.56;5009240;28;19918;-78
2022/03/31 09:25:10;;;;;;;;;;;;;;;19.00;50.61;98728.69;5009258;28;19921;-78
2022/03/31 09:27:36;;;;;;;;;;;;;;;19.41;49.20;98746.47;5009622;28;19922;-79
2022/03/31 09:30:05;;;;;;;;;;;;;;;19.00;49.19;98758.09;5009398;28;19932;-78
2022/03/31 09:32:31;;;;;;;;;;;;;;;19.32;48.92;98777.38;5009270;28;19925;-78
2022/03/31 09:35:03;;;;;;;;;;;;;;;19.47;48.45;98747.91;5008876;28;19922;-79
2022/03/31 09:37:32;;;;;;;;;;;;;;;19.35;48.46;98721.97;5009066;28;19921;-81
2022/03/31 09:39:57;;;;;;;;;;;;;;;19.41;47.77;98727.75;4989792;28;20051;-80
2022/03/31 09:42:23;;;;;;;;;;;;;;;19.90;46.94;98736.16;4989650;28;20400;-79
2022/03/31 09:44:58;;;;;;;;;;;;;;;19.85;46.91;98720.41;4989599;28;20407;-80
2022/03/31 09:47:26;;;;;;;;;;;;;;;19.69;47.78;98720.56;4989238;28;19926;-79
2022/03/31 09:49:52;;;;;;;;;;;;;;;19.56;47.25;98722.38;4990192;28;19928;-79
2022/03/31 09:52:19;;;;;;;;;;;;;;;19.69;47.81;98720.56;5007755;28;19960;-80
2022/03/31 09:54:46;;;;;;;;;;;;;;;19.75;46.33;98709.44;5041226;28;20044;-80
2022/03/31 09:57:12;;;;;;;;;;;;;;;19.64;47.02;98702.13;5009334;28;19995;-81
2022/03/31 09:59:38;;;;;;;;;;;;;;;19.85;47.22;98689.16;5008605;28;20731;-78
2022/03/31 10:02:04;;;;;;;;;;;;;;;20.27;46.19;98688.09;5009361;28;20411;-80
2022/03/31 10:04:31;;;;;;;;;;;;;;;20.61;45.87;98681.16;5009850;28;19921;-79
2022/03/31 10:06:57;;;;;;;;;;;;;;;20.42;45.60;98675.41;5009166;28;19921;-79
2022/03/31 10:09:24;;;;;;;;;;;;;;;20.36;44.95;98676.72;5008189;28;20047;-79
2022/03/31 10:12:03;;;;;;;;;;;;;;;20.39;46.04;98669.31;5041216;28;20311;-80
2022/03/31 10:14:43;;;;;;;;;;;;;;;20.22;45.39;98656.28;5008743;28;20728;-79
2022/03/31 10:17:10;;;;;;;;;;;;;;;20.09;45.64;98658.94;5009252;28;19922;-79
2022/03/31 10:19:38;;;;;;;;;;;;;;;20.25;44.15;98660.53;5008968;28;19921;-81
2022/03/31 10:24:41;;;;;;;;;;;;;;;20.84;43.65;98670.63;5009259;28;19928;-79
2022/03/31 10:24:57;;;;;;;;;;;;;;;20.72;44.02;98653.59;5009079;28;19975;-81
2022/03/31 10:27:32;;;;;;;;;;;;;;;20.80;43.24;98640.50;5008939;28;19917;-82
2022/03/31 10:30:08;;;;;;;;;;;;;;;21.10;41.96;98633.78;5008801;28;19921;-79
2022/03/31 10:32:34;;;;;;;;;;;;;;;21.10;42.47;98626.63;5008743;28;19917;-79
2022/03/31 10:34:59;;;;;;;;;;;;;;;21.14;42.69;98643.34;5008530;28;20297;-80
2022/03/31 10:37:34;;;;;;;;;;;;;;;21.64;41.34;98651.19;5009359;28;19922;-80
2022/03/31 10:40:00;;;;;;;;;;;;;;;22.02;39.92;98646.50;5008295;28;19917;-80
2022/03/31 10:42:25;;;;;;;;;;;;;;;21.83;39.88;98653.31;5008799;28;20020;-80
2022/03/31 10:45:04;;;;;;;;;;;;;;;21.86;39.87;98641.47;5009119;28;19921;-80
2022/03/31 10:47:33;;;;;;;;;;;;;;;22.23;38.60;98641.25;5008768;28;19925;-81
2022/03/31 10:49:59;;;;;;;;;;;;;;;22.28;38.61;98629.16;5008308;28;19947;-81
2022/03/31 10:52:24;;;;;;;;;;;;;;;22.25;40.38;98615.97;5008278;28;19928;-81
2022/03/31 10:54:51;;;;;;;;;;;;;;;22.10;40.14;98603.78;5008257;28;19922;-81
2022/03/31 10:57:17;;;;;;;;;;;;;;;21.80;41.41;98602.56;5040143;28;19941;-81
2022/03/31 10:59:43;;;;;;;;;;;;;;;21.39;41.85;98604.75;5007536;28;20143;-81
2022/03/31 11:02:14;;;;;;;;;;;;;;;21.39;41.85;98611.97;5008651;28;20473;-82
2022/03/31 11:04:46;;;;;;;;;;;;;;;21.63;41.15;98638.75;5007218;28;19917;-80
2022/03/31 11:07:16;;;;;;;;;;;;;;;21.84;40.84;98632.69;5007741;28;20426;-81
2022/03/31 11:09:43;;;;;;;;;;;;;;;21.88;39.38;98640.38;5006988;28;19926;-83
2022/03/31 11:12:08;;;;;;;;;;;;;;;21.67;40.25;98621.44;5007118;28;19918;-79
2022/03/31 11:14:34;;;;;;;;;;;;;;;21.66;40.65;98622.44;5008032;28;19921;-82
2022/03/31 11:16:59;;;;;;;;;;;;;;;21.87;41.28;98632.44;5007556;28;20522;-82
2022/03/31 11:19:34;;;;;;;;;;;;;;;22.11;41.18;98633.19;5007346;28;20406;-81
2022/03/31 11:21:59;;;;;;;;;;;;;;;22.16;42.26;98633.66;5006529;28;20395;-81
2022/03/31 11:24:25;;;;;;;;;;;;;;;22.40;40.26;98627.34;5008119;28;19921;-83
2022/03/31 11:26:54;;;;;;;;;;;;;;;22.47;39.04;98600.84;5008090;28;20355;-80
2022/03/31 11:29:22;;;;;;;;;;;;;;;21.95;40.32;98595.97;5007252;28;19926;-81
2022/03/31 11:31:51;;;;;;;;;;;;;;;22.28;39.58;98609.50;5007993;28;19967;-80
2022/03/31 11:34:17;;;;;;;;;;;;;;;22.50;39.36;98592.53;5006420;28;20316;-81
2022/03/31 11:36:43;;;;;;;;;;;;;;;22.50;38.56;98588.00;5006829;28;19921;-81
2022/03/31 11:39:09;;;;;;;;;;;;;;;22.30;39.09;98576.19;5021852;28;20016;-82
2022/03/31 11:41:39;;;;;;;;;;;;;;;22.32;40.12;98582.31;5007101;28;20424;-79
2022/03/31 11:44:06;;;;;;;;;;;;;;;22.17;39.78;98564.72;5007654;28;19929;-81
2022/03/31 11:46:43;;;;;;;;;;;;;;;22.16;40.43;98563.00;5007058;28;19925;-80
2022/03/31 11:49:12;;;;;;;;;;;;;;;22.38;40.37;98558.59;5039199;28;20308;-81
2022/03/31 11:51:38;;;;;;;;;;;;;;;22.70;41.99;98559.47;5005671;28;19921;-81
2022/03/31 11:54:08;;;;;;;;;;;;;;;22.60;42.50;98558.56;5007256;28;20366;-81
2022/03/31 11:56:33;;;;;;;;;;;;;;;23.14;39.52;98548.69;5007088;28;19960;-80
2022/03/31 11:58:58;;;;;;;;;;;;;;;21.68;39.72;98499.72;5006881;28;19957;-82
2022/03/31 12:01:33;;;;;;;;;;;;;;;21.58;40.01;98520.19;5007311;28;19932;-80
2022/03/31 12:03:58;;;;;;;;;;;;;;;21.97;40.17;98529.59;5006636;28;19922;-80
2022/03/31 12:06:24;;;;;;;;;;;;;;;21.74;40.08;98527.91;5007298;28;19929;-81
2022/03/31 12:08:49;;;;;;;;;;;;;;;21.68;40.40;98525.72;5006755;28;19925;-81
2022/03/31 12:11:15;;;;;;;;;;;;;;;21.65;40.50;98518.75;5010119;28;20032;-81
2022/03/31 12:13:51;;;;;;;;;;;;;;;21.34;40.39;98501.50;5010519;28;20358;-80
2022/03/31 12:16:17;;;;;;;;;;;;;;;21.30;40.56;98482.09;5010337;28;19924;-81
2022/03/31 12:18:43;;;;;;;;;;;;;;;21.66;40.00;98484.69;5011477;28;19925;-81
2022/03/31 12:21:09;;;;;;;;;;;;;;;21.49;40.57;98468.16;5010472;28;19928;-80
2022/03/31 12:23:42;;;;;;;;;;;;;;;21.35;41.34;98462.97;5043317;28;19918;-81
2022/03/31 12:26:11;;;;;;;;;;;;;;;21.19;41.31;98415.91;5011164;28;19925;-82
2022/03/31 12:28:43;;;;;;;;;;;;;;;21.43;41.94;98396.19;5010507;28;19968;-82
2022/03/31 12:31:18;;;;;;;;;;;;;;;21.85;41.87;98401.75;5042830;28;20616;-80
2022/03/31 12:33:47;;;;;;;;;;;;;;;21.65;40.85;98387.25;5010205;28;19922;-81
2022/03/31 12:36:12;;;;;;;;;;;;;;;21.62;41.73;98403.63;5010877;28;20008;-82
2022/03/31 12:38:48;;;;;;;;;;;;;;;22.00;41.70;98423.78;5042534;28;20017;-82
2022/03/31 12:41:28;;;;;;;;;;;;;;;21.98;41.77;98425.72;5009751;28;19981;-83
2022/03/31 12:43:58;;;;;;;;;;;;;;;22.13;41.55;98435.19;4990873;28;19977;-81
2022/03/31 12:46:28;;;;;;;;;;;;;;;22.42;40.64;98450.78;5000713;28;19929;-81